Terminal Aerodrome Forecast
Issued by NWS Twin Cities, MN

Home | Current Version | Previous Version | Graphics & Text | Print | Product List | Glossary On
Versions: 1 2 3 4 5 6 7 8 9 10 11 12 13 14 15 16 17 18 19 20
000
FTUS43 KMPX 212300
TAFEAU
TAF
KEAU 212332Z 2200/2224 17011KT P6SM BKN150
     FM220300 18010KT P6SM SCT010 OVC015
     FM220600 20006KT 4SM BR OVC005=

USA.gov is the U.S. government's official web portal to all federal, state and local government web resources and services.